sensor_id;sensor_type;location;lat;lon;timestamp;P1;durP1;ratioP1;P2;durP2;ratioP2
69956;SDS011;57283;54.816;9.482;2023-01-24T00:00:15;10.15;;;4.13;;
69956;SDS011;57283;54.816;9.482;2023-01-24T00:02:43;9.48;;;4.30;;
69956;SDS011;57283;54.816;9.482;2023-01-24T00:05:11;13.35;;;4.97;;
69956;SDS011;57283;54.816;9.482;2023-01-24T00:07:38;11.73;;;4.32;;
69956;SDS011;57283;54.816;9.482;2023-01-24T00:10:08;10.73;;;4.35;;
69956;SDS011;57283;54.816;9.482;2023-01-24T00:12:36;9.38;;;4.18;;
69956;SDS011;57283;54.816;9.482;2023-01-24T00:15:03;12.40;;;4.30;;
69956;SDS011;57283;54.816;9.482;2023-01-24T00:17:31;9.07;;;3.95;;
69956;SDS011;57283;54.816;9.482;2023-01-24T00:19:59;11.70;;;4.47;;
69956;SDS011;57283;54.816;9.482;2023-01-24T00:22:26;10.45;;;4.65;;
69956;SDS011;57283;54.816;9.482;2023-01-24T00:24:54;9.65;;;4.07;;
69956;SDS011;57283;54.816;9.482;2023-01-24T00:27:27;9.80;;;4.23;;
69956;SDS011;57283;54.816;9.482;2023-01-24T00:29:57;9.90;;;4.10;;
69956;SDS011;57283;54.816;9.482;2023-01-24T00:32:25;11.23;;;4.20;;
69956;SDS011;57283;54.816;9.482;2023-01-24T00:34:53;10.43;;;4.70;;
69956;SDS011;57283;54.816;9.482;2023-01-24T00:37:20;8.88;;;3.75;;
69956;SDS011;57283;54.816;9.482;2023-01-24T00:39:48;9.18;;;3.72;;
69956;SDS011;57283;54.816;9.482;2023-01-24T00:42:15;9.65;;;3.72;;
69956;SDS011;57283;54.816;9.482;2023-01-24T00:44:44;9.25;;;3.28;;
69956;SDS011;57283;54.816;9.482;2023-01-24T00:47:12;8.85;;;3.65;;
69956;SDS011;57283;54.816;9.482;2023-01-24T00:49:39;9.60;;;3.80;;
69956;SDS011;57283;54.816;9.482;2023-01-24T00:52:07;9.70;;;4.20;;
69956;SDS011;57283;54.816;9.482;2023-01-24T00:54:35;11.20;;;3.85;;
69956;SDS011;57283;54.816;9.482;2023-01-24T00:57:03;8.63;;;3.70;;
69956;SDS011;57283;54.816;9.482;2023-01-24T00:59:30;8.88;;;3.85;;
69956;SDS011;57283;54.816;9.482;2023-01-24T01:01:59;10.77;;;4.28;;
69956;SDS011;57283;54.816;9.482;2023-01-24T01:04:27;9.15;;;3.97;;
69956;SDS011;57283;54.816;9.482;2023-01-24T01:06:54;12.02;;;4.60;;
69956;SDS011;57283;54.816;9.482;2023-01-24T01:09:22;10.40;;;3.78;;
69956;SDS011;57283;54.816;9.482;2023-01-24T01:11:49;10.32;;;4.10;;
69956;SDS011;57283;54.816;9.482;2023-01-24T01:14:17;9.88;;;4.15;;
69956;SDS011;57283;54.816;9.482;2023-01-24T01:16:44;8.68;;;3.90;;
69956;SDS011;57283;54.816;9.482;2023-01-24T01:19:13;8.77;;;4.05;;
69956;SDS011;57283;54.816;9.482;2023-01-24T01:21:41;9.48;;;4.07;;
69956;SDS011;57283;54.816;9.482;2023-01-24T01:24:10;12.43;;;4.25;;
69956;SDS011;57283;54.816;9.482;2023-01-24T01:26:38;11.43;;;3.95;;
69956;SDS011;57283;54.816;9.482;2023-01-24T01:29:05;11.75;;;4.90;;
69956;SDS011;57283;54.816;9.482;2023-01-24T01:31:33;11.93;;;4.82;;
69956;SDS011;57283;54.816;9.482;2023-01-24T01:34:02;10.73;;;4.40;;
69956;SDS011;57283;54.816;9.482;2023-01-24T01:36:31;11.45;;;4.32;;
69956;SDS011;57283;54.816;9.482;2023-01-24T01:38:59;10.57;;;4.40;;
69956;SDS011;57283;54.816;9.482;2023-01-24T01:41:26;13.00;;;4.63;;
69956;SDS011;57283;54.816;9.482;2023-01-24T01:43:54;9.73;;;4.53;;
69956;SDS011;57283;54.816;9.482;2023-01-24T01:46:40;10.80;;;4.20;;
69956;SDS011;57283;54.816;9.482;2023-01-24T01:49:11;10.77;;;4.30;;
69956;SDS011;57283;54.816;9.482;2023-01-24T01:51:44;11.68;;;4.53;;
69956;SDS011;57283;54.816;9.482;2023-01-24T01:54:13;11.37;;;4.00;;
69956;SDS011;57283;54.816;9.482;2023-01-24T01:56:43;9.63;;;3.80;;
69956;SDS011;57283;54.816;9.482;2023-01-24T01:59:13;10.10;;;4.03;;
69956;SDS011;57283;54.816;9.482;2023-01-24T02:01:41;10.15;;;4.00;;
69956;SDS011;57283;54.816;9.482;2023-01-24T02:04:10;7.78;;;3.45;;
69956;SDS011;57283;54.816;9.482;2023-01-24T02:06:42;10.40;;;3.67;;
69956;SDS011;57283;54.816;9.482;2023-01-24T02:09:11;12.75;;;3.70;;
69956;SDS011;57283;54.816;9.482;2023-01-24T02:11:40;9.98;;;3.95;;
69956;SDS011;57283;54.816;9.482;2023-01-24T02:14:10;10.50;;;3.53;;
69956;SDS011;57283;54.816;9.482;2023-01-24T02:16:56;9.73;;;3.95;;
69956;SDS011;57283;54.816;9.482;2023-01-24T02:19:30;10.60;;;3.85;;
69956;SDS011;57283;54.816;9.482;2023-01-24T02:22:02;11.68;;;4.10;;
69956;SDS011;57283;54.816;9.482;2023-01-24T02:24:35;8.20;;;3.22;;
69956;SDS011;57283;54.816;9.482;2023-01-24T02:27:05;9.70;;;3.83;;
69956;SDS011;57283;54.816;9.482;2023-01-24T02:29:33;9.60;;;3.38;;
69956;SDS011;57283;54.816;9.482;2023-01-24T02:32:02;9.75;;;3.53;;
69956;SDS011;57283;54.816;9.482;2023-01-24T02:34:30;10.27;;;3.53;;
69956;SDS011;57283;54.816;9.482;2023-01-24T02:36:58;10.50;;;3.70;;
69956;SDS011;57283;54.816;9.482;2023-01-24T02:39:26;9.52;;;3.80;;
69956;SDS011;57283;54.816;9.482;2023-01-24T02:41:57;8.18;;;3.55;;
69956;SDS011;57283;54.816;9.482;2023-01-24T02:44:29;10.00;;;3.53;;
69956;SDS011;57283;54.816;9.482;2023-01-24T02:46:57;9.50;;;3.70;;
69956;SDS011;57283;54.816;9.482;2023-01-24T02:49:25;13.75;;;3.60;;
69956;SDS011;57283;54.816;9.482;2023-01-24T02:51:53;10.63;;;4.20;;
69956;SDS011;57283;54.816;9.482;2023-01-24T02:54:38;9.85;;;3.67;;
69956;SDS011;57283;54.816;9.482;2023-01-24T02:57:05;10.82;;;3.85;;
69956;SDS011;57283;54.816;9.482;2023-01-24T02:59:52;11.32;;;4.18;;
69956;SDS011;57283;54.816;9.482;2023-01-24T03:02:19;8.50;;;3.92;;
69956;SDS011;57283;54.816;9.482;2023-01-24T03:04:47;9.43;;;3.70;;
69956;SDS011;57283;54.816;9.482;2023-01-24T03:07:15;11.55;;;3.95;;
69956;SDS011;57283;54.816;9.482;2023-01-24T03:09:42;9.07;;;3.60;;
69956;SDS011;57283;54.816;9.482;2023-01-24T03:12:16;9.90;;;3.65;;
69956;SDS011;57283;54.816;9.482;2023-01-24T03:15:02;9.30;;;3.28;;
69956;SDS011;57283;54.816;9.482;2023-01-24T03:17:47;10.55;;;3.95;;
69956;SDS011;57283;54.816;9.482;2023-01-24T03:20:32;11.30;;;3.80;;
69956;SDS011;57283;54.816;9.482;2023-01-24T03:23:17;7.97;;;3.30;;
69956;SDS011;57283;54.816;9.482;2023-01-24T03:26:02;10.02;;;4.05;;
69956;SDS011;57283;54.816;9.482;2023-01-24T03:28:48;10.02;;;4.28;;
69956;SDS011;57283;54.816;9.482;2023-01-24T03:31:34;9.48;;;3.72;;
69956;SDS011;57283;54.816;9.482;2023-01-24T03:34:19;6.68;;;3.38;;
69956;SDS011;57283;54.816;9.482;2023-01-24T03:36:59;10.23;;;4.00;;
69956;SDS011;57283;54.816;9.482;2023-01-24T03:39:27;10.95;;;4.28;;
69956;SDS011;57283;54.816;9.482;2023-01-24T03:42:12;11.05;;;4.20;;
69956;SDS011;57283;54.816;9.482;2023-01-24T03:44:39;11.10;;;4.07;;
69956;SDS011;57283;54.816;9.482;2023-01-24T03:47:08;9.02;;;4.50;;
69956;SDS011;57283;54.816;9.482;2023-01-24T03:49:36;10.20;;;4.90;;
69956;SDS011;57283;54.816;9.482;2023-01-24T03:52:21;10.77;;;4.85;;
69956;SDS011;57283;54.816;9.482;2023-01-24T03:54:52;9.77;;;4.15;;
69956;SDS011;57283;54.816;9.482;2023-01-24T03:57:19;9.60;;;4.50;;
69956;SDS011;57283;54.816;9.482;2023-01-24T03:59:47;12.32;;;4.70;;
69956;SDS011;57283;54.816;9.482;2023-01-24T04:02:16;11.83;;;4.40;;
69956;SDS011;57283;54.816;9.482;2023-01-24T04:04:44;12.15;;;4.93;;
69956;SDS011;57283;54.816;9.482;2023-01-24T04:07:29;12.75;;;6.13;;
69956;SDS011;57283;54.816;9.482;2023-01-24T04:09:56;12.15;;;4.97;;
69956;SDS011;57283;54.816;9.482;2023-01-24T04:12:25;11.15;;;4.90;;
69956;SDS011;57283;54.816;9.482;2023-01-24T04:14:52;11.43;;;4.67;;
69956;SDS011;57283;54.816;9.482;2023-01-24T04:17:21;10.85;;;5.07;;
69956;SDS011;57283;54.816;9.482;2023-01-24T04:19:49;11.10;;;4.78;;
69956;SDS011;57283;54.816;9.482;2023-01-24T04:22:17;8.75;;;3.78;;
69956;SDS011;57283;54.816;9.482;2023-01-24T04:24:45;10.25;;;4.53;;
69956;SDS011;57283;54.816;9.482;2023-01-24T04:27:12;9.63;;;4.93;;
69956;SDS011;57283;54.816;9.482;2023-01-24T04:29:40;10.63;;;4.38;;
69956;SDS011;57283;54.816;9.482;2023-01-24T04:32:08;9.40;;;3.92;;
69956;SDS011;57283;54.816;9.482;2023-01-24T04:34:37;10.55;;;3.42;;
69956;SDS011;57283;54.816;9.482;2023-01-24T04:37:04;12.77;;;4.03;;
69956;SDS011;57283;54.816;9.482;2023-01-24T04:39:32;9.83;;;4.30;;
69956;SDS011;57283;54.816;9.482;2023-01-24T04:42:00;10.30;;;3.83;;
69956;SDS011;57283;54.816;9.482;2023-01-24T04:44:27;8.02;;;3.45;;
69956;SDS011;57283;54.816;9.482;2023-01-24T04:46:55;9.25;;;4.05;;
69956;SDS011;57283;54.816;9.482;2023-01-24T04:49:22;9.45;;;3.35;;
69956;SDS011;57283;54.816;9.482;2023-01-24T04:51:51;8.43;;;3.03;;
69956;SDS011;57283;54.816;9.482;2023-01-24T04:54:19;7.35;;;3.13;;
69956;SDS011;57283;54.816;9.482;2023-01-24T04:56:47;10.18;;;3.17;;
69956;SDS011;57283;54.816;9.482;2023-01-24T04:59:14;8.40;;;3.40;;
69956;SDS011;57283;54.816;9.482;2023-01-24T05:01:42;6.57;;;2.95;;
69956;SDS011;57283;54.816;9.482;2023-01-24T05:04:09;6.93;;;3.23;;
69956;SDS011;57283;54.816;9.482;2023-01-24T05:06:37;7.88;;;3.05;;
69956;SDS011;57283;54.816;9.482;2023-01-24T05:09:06;6.93;;;2.90;;
69956;SDS011;57283;54.816;9.482;2023-01-24T05:11:34;6.78;;;3.10;;
69956;SDS011;57283;54.816;9.482;2023-01-24T05:14:02;8.38;;;3.08;;
69956;SDS011;57283;54.816;9.482;2023-01-24T05:16:30;8.33;;;3.33;;
69956;SDS011;57283;54.816;9.482;2023-01-24T05:18:57;6.03;;;2.75;;
69956;SDS011;57283;54.816;9.482;2023-01-24T05:21:25;6.47;;;2.88;;
69956;SDS011;57283;54.816;9.482;2023-01-24T05:23:56;10.20;;;3.17;;
69956;SDS011;57283;54.816;9.482;2023-01-24T05:26:25;8.38;;;3.20;;
69956;SDS011;57283;54.816;9.482;2023-01-24T05:28:53;8.27;;;3.03;;
69956;SDS011;57283;54.816;9.482;2023-01-24T05:31:21;9.68;;;3.05;;
69956;SDS011;57283;54.816;9.482;2023-01-24T05:33:48;9.15;;;3.10;;
69956;SDS011;57283;54.816;9.482;2023-01-24T05:36:17;6.75;;;2.47;;
69956;SDS011;57283;54.816;9.482;2023-01-24T05:38:45;9.25;;;3.30;;
69956;SDS011;57283;54.816;9.482;2023-01-24T05:41:13;9.07;;;3.23;;
69956;SDS011;57283;54.816;9.482;2023-01-24T05:43:43;9.10;;;3.03;;
69956;SDS011;57283;54.816;9.482;2023-01-24T05:46:12;7.90;;;2.70;;
69956;SDS011;57283;54.816;9.482;2023-01-24T05:48:41;8.63;;;3.05;;
69956;SDS011;57283;54.816;9.482;2023-01-24T05:51:10;7.80;;;3.10;;
69956;SDS011;57283;54.816;9.482;2023-01-24T05:53:38;7.50;;;3.30;;
69956;SDS011;57283;54.816;9.482;2023-01-24T05:56:07;7.05;;;2.90;;
69956;SDS011;57283;54.816;9.482;2023-01-24T05:58:36;8.63;;;3.10;;
69956;SDS011;57283;54.816;9.482;2023-01-24T06:01:09;8.05;;;3.25;;
69956;SDS011;57283;54.816;9.482;2023-01-24T06:03:37;9.23;;;3.00;;
69956;SDS011;57283;54.816;9.482;2023-01-24T06:06:05;6.87;;;3.13;;
69956;SDS011;57283;54.816;9.482;2023-01-24T06:08:33;8.07;;;2.97;;
69956;SDS011;57283;54.816;9.482;2023-01-24T06:11:04;7.55;;;2.95;;
69956;SDS011;57283;54.816;9.482;2023-01-24T06:13:32;7.53;;;3.40;;
69956;SDS011;57283;54.816;9.482;2023-01-24T06:16:00;8.65;;;3.10;;
69956;SDS011;57283;54.816;9.482;2023-01-24T06:18:29;8.53;;;3.03;;
69956;SDS011;57283;54.816;9.482;2023-01-24T06:20:57;6.65;;;2.88;;
69956;SDS011;57283;54.816;9.482;2023-01-24T06:23:25;8.52;;;3.38;;
69956;SDS011;57283;54.816;9.482;2023-01-24T06:25:53;7.60;;;2.92;;
69956;SDS011;57283;54.816;9.482;2023-01-24T06:28:21;8.50;;;3.17;;
69956;SDS011;57283;54.816;9.482;2023-01-24T06:30:51;10.47;;;3.03;;
69956;SDS011;57283;54.816;9.482;2023-01-24T06:33:25;7.97;;;3.30;;
69956;SDS011;57283;54.816;9.482;2023-01-24T06:36:03;8.02;;;2.78;;
69956;SDS011;57283;54.816;9.482;2023-01-24T06:38:34;8.63;;;3.08;;
69956;SDS011;57283;54.816;9.482;2023-01-24T06:41:02;7.95;;;3.35;;
69956;SDS011;57283;54.816;9.482;2023-01-24T06:43:30;7.40;;;2.80;;
69956;SDS011;57283;54.816;9.482;2023-01-24T06:45:58;9.98;;;3.60;;
69956;SDS011;57283;54.816;9.482;2023-01-24T06:48:25;7.47;;;2.95;;
69956;SDS011;57283;54.816;9.482;2023-01-24T06:50:54;8.50;;;3.15;;
69956;SDS011;57283;54.816;9.482;2023-01-24T06:53:22;7.97;;;3.20;;
69956;SDS011;57283;54.816;9.482;2023-01-24T06:55:50;7.67;;;3.27;;
69956;SDS011;57283;54.816;9.482;2023-01-24T06:58:18;8.13;;;3.17;;
69956;SDS011;57283;54.816;9.482;2023-01-24T07:00:45;9.95;;;3.78;;
69956;SDS011;57283;54.816;9.482;2023-01-24T07:03:13;9.45;;;3.50;;
69956;SDS011;57283;54.816;9.482;2023-01-24T07:05:40;9.57;;;3.88;;
69956;SDS011;57283;54.816;9.482;2023-01-24T07:08:08;8.52;;;3.33;;
69956;SDS011;57283;54.816;9.482;2023-01-24T07:10:37;9.85;;;3.83;;
69956;SDS011;57283;54.816;9.482;2023-01-24T07:13:06;8.73;;;3.65;;
69956;SDS011;57283;54.816;9.482;2023-01-24T07:15:33;7.90;;;3.50;;
69956;SDS011;57283;54.816;9.482;2023-01-24T07:18:04;11.40;;;3.35;;
69956;SDS011;57283;54.816;9.482;2023-01-24T07:20:31;12.10;;;3.67;;
69956;SDS011;57283;54.816;9.482;2023-01-24T07:22:59;7.90;;;3.35;;
69956;SDS011;57283;54.816;9.482;2023-01-24T07:25:27;9.38;;;3.75;;
69956;SDS011;57283;54.816;9.482;2023-01-24T07:27:57;9.00;;;3.67;;
69956;SDS011;57283;54.816;9.482;2023-01-24T07:30:25;10.63;;;4.13;;
69956;SDS011;57283;54.816;9.482;2023-01-24T07:32:54;9.80;;;3.67;;
69956;SDS011;57283;54.816;9.482;2023-01-24T07:35:21;10.18;;;3.80;;
69956;SDS011;57283;54.816;9.482;2023-01-24T07:37:50;7.82;;;3.20;;
69956;SDS011;57283;54.816;9.482;2023-01-24T07:40:17;11.70;;;4.60;;
69956;SDS011;57283;54.816;9.482;2023-01-24T07:42:45;10.60;;;3.78;;
69956;SDS011;57283;54.816;9.482;2023-01-24T07:45:14;11.35;;;3.60;;
69956;SDS011;57283;54.816;9.482;2023-01-24T07:47:41;8.30;;;3.22;;
69956;SDS011;57283;54.816;9.482;2023-01-24T07:50:09;9.63;;;3.53;;
69956;SDS011;57283;54.816;9.482;2023-01-24T07:52:37;10.63;;;3.83;;
69956;SDS011;57283;54.816;9.482;2023-01-24T07:55:05;7.28;;;3.28;;
69956;SDS011;57283;54.816;9.482;2023-01-24T07:57:32;9.67;;;3.57;;
69956;SDS011;57283;54.816;9.482;2023-01-24T08:00:00;8.32;;;3.42;;
69956;SDS011;57283;54.816;9.482;2023-01-24T08:02:29;9.52;;;3.25;;
69956;SDS011;57283;54.816;9.482;2023-01-24T08:04:56;11.48;;;4.97;;
69956;SDS011;57283;54.816;9.482;2023-01-24T08:07:24;9.43;;;4.15;;
69956;SDS011;57283;54.816;9.482;2023-01-24T08:09:52;9.40;;;3.63;;
69956;SDS011;57283;54.816;9.482;2023-01-24T08:12:20;8.50;;;3.95;;
69956;SDS011;57283;54.816;9.482;2023-01-24T08:14:48;9.63;;;4.00;;
69956;SDS011;57283;54.816;9.482;2023-01-24T08:17:16;9.75;;;3.70;;
69956;SDS011;57283;54.816;9.482;2023-01-24T08:19:44;9.88;;;3.92;;
69956;SDS011;57283;54.816;9.482;2023-01-24T08:22:22;7.55;;;3.17;;
69956;SDS011;57283;54.816;9.482;2023-01-24T08:24:50;11.48;;;3.80;;
69956;SDS011;57283;54.816;9.482;2023-01-24T08:27:17;7.78;;;3.22;;
69956;SDS011;57283;54.816;9.482;2023-01-24T08:29:45;9.88;;;3.92;;
69956;SDS011;57283;54.816;9.482;2023-01-24T08:32:12;8.70;;;3.63;;
69956;SDS011;57283;54.816;9.482;2023-01-24T08:34:40;9.70;;;3.67;;
69956;SDS011;57283;54.816;9.482;2023-01-24T08:37:09;9.52;;;3.72;;
69956;SDS011;57283;54.816;9.482;2023-01-24T08:39:37;9.98;;;4.20;;
69956;SDS011;57283;54.816;9.482;2023-01-24T08:42:04;8.60;;;3.88;;
69956;SDS011;57283;54.816;9.482;2023-01-24T08:44:32;9.98;;;4.03;;
69956;SDS011;57283;54.816;9.482;2023-01-24T08:46:59;10.38;;;4.28;;
69956;SDS011;57283;54.816;9.482;2023-01-24T08:49:27;9.43;;;4.00;;
69956;SDS011;57283;54.816;9.482;2023-01-24T08:51:54;9.57;;;3.75;;
69956;SDS011;57283;54.816;9.482;2023-01-24T08:54:27;9.20;;;3.60;;
69956;SDS011;57283;54.816;9.482;2023-01-24T08:56:54;10.15;;;3.60;;
69956;SDS011;57283;54.816;9.482;2023-01-24T08:59:22;9.80;;;4.07;;
69956;SDS011;57283;54.816;9.482;2023-01-24T09:01:50;8.20;;;3.58;;
69956;SDS011;57283;54.816;9.482;2023-01-24T09:04:17;10.77;;;4.05;;
69956;SDS011;57283;54.816;9.482;2023-01-24T09:06:45;12.07;;;3.50;;
69956;SDS011;57283;54.816;9.482;2023-01-24T09:09:12;10.48;;;4.20;;
69956;SDS011;57283;54.816;9.482;2023-01-24T09:11:41;9.95;;;3.80;;
69956;SDS011;57283;54.816;9.482;2023-01-24T09:14:09;10.07;;;4.65;;
69956;SDS011;57283;54.816;9.482;2023-01-24T09:16:36;9.32;;;3.58;;
69956;SDS011;57283;54.816;9.482;2023-01-24T09:19:04;9.50;;;3.63;;
69956;SDS011;57283;54.816;9.482;2023-01-24T09:21:33;9.23;;;3.70;;
69956;SDS011;57283;54.816;9.482;2023-01-24T09:24:01;9.40;;;3.60;;
69956;SDS011;57283;54.816;9.482;2023-01-24T09:26:28;7.72;;;3.20;;
69956;SDS011;57283;54.816;9.482;2023-01-24T09:28:57;7.68;;;3.22;;
69956;SDS011;57283;54.816;9.482;2023-01-24T09:31:25;8.60;;;3.70;;
69956;SDS011;57283;54.816;9.482;2023-01-24T09:33:53;8.40;;;3.45;;
69956;SDS011;57283;54.816;9.482;2023-01-24T09:36:25;7.97;;;3.30;;
69956;SDS011;57283;54.816;9.482;2023-01-24T09:38:54;9.85;;;3.47;;
69956;SDS011;57283;54.816;9.482;2023-01-24T09:41:35;11.25;;;3.58;;
69956;SDS011;57283;54.816;9.482;2023-01-24T09:44:07;7.28;;;3.03;;
69956;SDS011;57283;54.816;9.482;2023-01-24T09:46:38;9.80;;;3.03;;
69956;SDS011;57283;54.816;9.482;2023-01-24T09:49:11;13.18;;;3.72;;
69956;SDS011;57283;54.816;9.482;2023-01-24T09:51:41;8.65;;;3.30;;
69956;SDS011;57283;54.816;9.482;2023-01-24T09:54:12;7.43;;;3.53;;
69956;SDS011;57283;54.816;9.482;2023-01-24T09:56:42;11.80;;;3.42;;
69956;SDS011;57283;54.816;9.482;2023-01-24T09:59:19;9.75;;;3.97;;
69956;SDS011;57283;54.816;9.482;2023-01-24T10:01:47;8.23;;;3.33;;
69956;SDS011;57283;54.816;9.482;2023-01-24T10:04:16;9.80;;;4.20;;
69956;SDS011;57283;54.816;9.482;2023-01-24T10:06:51;8.85;;;3.65;;
69956;SDS011;57283;54.816;9.482;2023-01-24T10:09:21;11.57;;;3.28;;
69956;SDS011;57283;54.816;9.482;2023-01-24T10:11:54;8.38;;;3.63;;
69956;SDS011;57283;54.816;9.482;2023-01-24T10:14:35;7.90;;;3.58;;
69956;SDS011;57283;54.816;9.482;2023-01-24T10:22:54;9.23;;;3.45;;
69956;SDS011;57283;54.816;9.482;2023-01-24T10:25:27;9.52;;;4.35;;
69956;SDS011;57283;54.816;9.482;2023-01-24T10:27:56;11.13;;;4.38;;
69956;SDS011;57283;54.816;9.482;2023-01-24T10:30:30;10.70;;;4.10;;
69956;SDS011;57283;54.816;9.482;2023-01-24T10:33:01;11.43;;;3.88;;
69956;SDS011;57283;54.816;9.482;2023-01-24T10:35:31;10.85;;;5.00;;
69956;SDS011;57283;54.816;9.482;2023-01-24T10:38:02;9.55;;;4.13;;
69956;SDS011;57283;54.816;9.482;2023-01-24T10:40:32;11.40;;;4.70;;
69956;SDS011;57283;54.816;9.482;2023-01-24T10:43:03;9.65;;;4.45;;
69956;SDS011;57283;54.816;9.482;2023-01-24T10:45:40;9.18;;;3.80;;
69956;SDS011;57283;54.816;9.482;2023-01-24T10:48:11;11.27;;;4.85;;
69956;SDS011;57283;54.816;9.482;2023-01-24T10:50:44;8.45;;;3.70;;
69956;SDS011;57283;54.816;9.482;2023-01-24T10:53:12;9.15;;;4.45;;
69956;SDS011;57283;54.816;9.482;2023-01-24T10:55:56;10.93;;;4.57;;
69956;SDS011;57283;54.816;9.482;2023-01-24T10:58:25;8.93;;;4.00;;
69956;SDS011;57283;54.816;9.482;2023-01-24T11:00:58;8.02;;;3.58;;
69956;SDS011;57283;54.816;9.482;2023-01-24T11:03:27;10.65;;;4.13;;
69956;SDS011;57283;54.816;9.482;2023-01-24T11:05:56;11.40;;;4.25;;
69956;SDS011;57283;54.816;9.482;2023-01-24T11:08:24;11.65;;;4.85;;
69956;SDS011;57283;54.816;9.482;2023-01-24T11:10:53;11.65;;;4.53;;
69956;SDS011;57283;54.816;9.482;2023-01-24T11:13:25;10.05;;;4.68;;
69956;SDS011;57283;54.816;9.482;2023-01-24T11:15:54;9.80;;;4.57;;
69956;SDS011;57283;54.816;9.482;2023-01-24T11:18:25;14.38;;;5.30;;
69956;SDS011;57283;54.816;9.482;2023-01-24T11:21:03;12.15;;;5.20;;
69956;SDS011;57283;54.816;9.482;2023-01-24T11:23:31;12.85;;;4.75;;
69956;SDS011;57283;54.816;9.482;2023-01-24T11:25:59;11.35;;;4.30;;
69956;SDS011;57283;54.816;9.482;2023-01-24T11:28:28;11.20;;;4.88;;
69956;SDS011;57283;54.816;9.482;2023-01-24T11:30:58;13.40;;;4.97;;
69956;SDS011;57283;54.816;9.482;2023-01-24T11:36:16;11.07;;;4.43;;
69956;SDS011;57283;54.816;9.482;2023-01-24T11:38:50;10.13;;;4.75;;
69956;SDS011;57283;54.816;9.482;2023-01-24T11:41:19;11.07;;;4.68;;
69956;SDS011;57283;54.816;9.482;2023-01-24T11:43:54;11.98;;;5.28;;
69956;SDS011;57283;54.816;9.482;2023-01-24T11:46:29;10.07;;;4.60;;
69956;SDS011;57283;54.816;9.482;2023-01-24T11:49:04;9.73;;;3.75;;
69956;SDS011;57283;54.816;9.482;2023-01-24T11:51:41;10.95;;;4.45;;
69956;SDS011;57283;54.816;9.482;2023-01-24T11:54:16;11.30;;;4.70;;
69956;SDS011;57283;54.816;9.482;2023-01-24T11:56:50;10.88;;;4.57;;
69956;SDS011;57283;54.816;9.482;2023-01-24T12:02:32;10.48;;;4.45;;
69956;SDS011;57283;54.816;9.482;2023-01-24T12:05:09;10.65;;;4.55;;
69956;SDS011;57283;54.816;9.482;2023-01-24T12:07:44;12.45;;;5.05;;
69956;SDS011;57283;54.816;9.482;2023-01-24T12:10:15;10.77;;;4.10;;
69956;SDS011;57283;54.816;9.482;2023-01-24T12:12:49;9.07;;;4.35;;
69956;SDS011;57283;54.816;9.482;2023-01-24T12:15:24;12.20;;;5.18;;
69956;SDS011;57283;54.816;9.482;2023-01-24T12:17:58;14.98;;;6.15;;
69956;SDS011;57283;54.816;9.482;2023-01-24T12:20:32;15.82;;;5.40;;
69956;SDS011;57283;54.816;9.482;2023-01-24T12:23:05;10.25;;;5.03;;
69956;SDS011;57283;54.816;9.482;2023-01-24T12:25:36;11.25;;;4.60;;
69956;SDS011;57283;54.816;9.482;2023-01-24T12:28:05;13.27;;;5.78;;
69956;SDS011;57283;54.816;9.482;2023-01-24T12:30:34;15.82;;;5.93;;
69956;SDS011;57283;54.816;9.482;2023-01-24T12:33:08;12.18;;;5.63;;
69956;SDS011;57283;54.816;9.482;2023-01-24T12:35:38;12.32;;;5.40;;
69956;SDS011;57283;54.816;9.482;2023-01-24T12:38:12;13.07;;;5.50;;
69956;SDS011;57283;54.816;9.482;2023-01-24T12:40:44;12.60;;;5.22;;
69956;SDS011;57283;54.816;9.482;2023-01-24T12:43:16;12.10;;;5.03;;
69956;SDS011;57283;54.816;9.482;2023-01-24T12:45:47;13.27;;;5.75;;
69956;SDS011;57283;54.816;9.482;2023-01-24T12:48:19;15.63;;;5.88;;
69956;SDS011;57283;54.816;9.482;2023-01-24T12:50:51;12.57;;;5.15;;
69956;SDS011;57283;54.816;9.482;2023-01-24T12:53:23;12.57;;;6.13;;
69956;SDS011;57283;54.816;9.482;2023-01-24T12:55:52;12.95;;;5.30;;
69956;SDS011;57283;54.816;9.482;2023-01-24T12:58:22;12.38;;;6.03;;
69956;SDS011;57283;54.816;9.482;2023-01-24T13:00:55;13.27;;;5.45;;
69956;SDS011;57283;54.816;9.482;2023-01-24T13:03:39;10.48;;;4.88;;
69956;SDS011;57283;54.816;9.482;2023-01-24T13:06:09;12.05;;;5.13;;
69956;SDS011;57283;54.816;9.482;2023-01-24T13:08:44;12.75;;;5.07;;
69956;SDS011;57283;54.816;9.482;2023-01-24T13:11:17;10.93;;;5.65;;
69956;SDS011;57283;54.816;9.482;2023-01-24T13:13:46;10.73;;;5.32;;
69956;SDS011;57283;54.816;9.482;2023-01-24T13:16:22;12.60;;;5.80;;
69956;SDS011;57283;54.816;9.482;2023-01-24T13:18:55;13.18;;;5.25;;
69956;SDS011;57283;54.816;9.482;2023-01-24T13:21:28;12.95;;;5.63;;
69956;SDS011;57283;54.816;9.482;2023-01-24T13:24:16;12.38;;;5.65;;
69956;SDS011;57283;54.816;9.482;2023-01-24T13:26:56;13.15;;;5.50;;
69956;SDS011;57283;54.816;9.482;2023-01-24T13:29:31;13.48;;;5.60;;
69956;SDS011;57283;54.816;9.482;2023-01-24T13:32:05;15.70;;;6.00;;
69956;SDS011;57283;54.816;9.482;2023-01-24T13:34:34;15.93;;;7.30;;
69956;SDS011;57283;54.816;9.482;2023-01-24T13:37:03;16.60;;;6.57;;
69956;SDS011;57283;54.816;9.482;2023-01-24T13:39:33;12.80;;;5.60;;
69956;SDS011;57283;54.816;9.482;2023-01-24T13:42:03;16.42;;;6.10;;
69956;SDS011;57283;54.816;9.482;2023-01-24T13:44:32;14.55;;;5.63;;
69956;SDS011;57283;54.816;9.482;2023-01-24T13:47:03;12.05;;;5.75;;
69956;SDS011;57283;54.816;9.482;2023-01-24T13:49:32;12.05;;;5.55;;
69956;SDS011;57283;54.816;9.482;2023-01-24T13:52:00;11.52;;;4.32;;
69956;SDS011;57283;54.816;9.482;2023-01-24T13:54:36;12.38;;;5.10;;
69956;SDS011;57283;54.816;9.482;2023-01-24T13:57:11;12.77;;;5.35;;
69956;SDS011;57283;54.816;9.482;2023-01-24T13:59:42;13.55;;;5.38;;
69956;SDS011;57283;54.816;9.482;2023-01-24T14:02:25;14.98;;;5.60;;
69956;SDS011;57283;54.816;9.482;2023-01-24T14:04:54;11.52;;;5.43;;
69956;SDS011;57283;54.816;9.482;2023-01-24T14:07:26;12.07;;;5.72;;
69956;SDS011;57283;54.816;9.482;2023-01-24T14:09:58;11.15;;;5.05;;
69956;SDS011;57283;54.816;9.482;2023-01-24T14:12:26;14.25;;;5.63;;
69956;SDS011;57283;54.816;9.482;2023-01-24T14:14:59;12.93;;;5.22;;
69956;SDS011;57283;54.816;9.482;2023-01-24T14:17:28;14.00;;;5.40;;
69956;SDS011;57283;54.816;9.482;2023-01-24T14:20:15;12.35;;;4.75;;
69956;SDS011;57283;54.816;9.482;2023-01-24T14:22:44;11.18;;;5.18;;
69956;SDS011;57283;54.816;9.482;2023-01-24T14:27:57;12.88;;;4.93;;
69956;SDS011;57283;54.816;9.482;2023-01-24T14:30:35;14.48;;;5.28;;
69956;SDS011;57283;54.816;9.482;2023-01-24T14:33:11;11.25;;;4.82;;
69956;SDS011;57283;54.816;9.482;2023-01-24T14:35:47;14.10;;;6.13;;
69956;SDS011;57283;54.816;9.482;2023-01-24T14:38:16;14.98;;;6.38;;
69956;SDS011;57283;54.816;9.482;2023-01-24T14:40:44;13.55;;;5.30;;
69956;SDS011;57283;54.816;9.482;2023-01-24T14:43:17;11.32;;;5.25;;
69956;SDS011;57283;54.816;9.482;2023-01-24T14:45:45;14.93;;;5.30;;
69956;SDS011;57283;54.816;9.482;2023-01-24T14:48:14;13.80;;;6.15;;
69956;SDS011;57283;54.816;9.482;2023-01-24T14:50:43;13.20;;;5.72;;
69956;SDS011;57283;54.816;9.482;2023-01-24T14:53:23;11.07;;;4.55;;
69956;SDS011;57283;54.816;9.482;2023-01-24T14:55:51;14.13;;;5.43;;
69956;SDS011;57283;54.816;9.482;2023-01-24T14:58:20;11.93;;;4.85;;
69956;SDS011;57283;54.816;9.482;2023-01-24T15:00:49;13.80;;;5.47;;
69956;SDS011;57283;54.816;9.482;2023-01-24T15:03:18;12.68;;;5.20;;
69956;SDS011;57283;54.816;9.482;2023-01-24T15:05:50;11.82;;;4.97;;
69956;SDS011;57283;54.816;9.482;2023-01-24T15:08:18;12.45;;;4.93;;
69956;SDS011;57283;54.816;9.482;2023-01-24T15:10:45;14.52;;;5.82;;
69956;SDS011;57283;54.816;9.482;2023-01-24T15:13:22;14.00;;;6.00;;